Time;durP1;ratioP1;P1;durP2;ratioP2;P2;SDS_P1;SDS_P2;PMS_P1;PMS_P2;Temp;Humidity;BMP_temperature;BMP_pressure;BME280_temperature;BME280_humidity;BME280_pressure;Samples;Min_cycle;Max_cycle;Signal;HPM_P1;HPM_P2
2021/10/07 00:00:53;;;;;;;17.25;9.83;;;;;;;1.98;100.00;101126.73;1648268;87;20899;-64
2021/10/07 00:03:20;;;;;;;16.23;10.13;;;;;;;1.88;100.00;101128.17;1648931;87;21225;-64
2021/10/07 00:05:46;;;;;;;28.38;13.90;;;;;;;1.80;100.00;101129.97;1650306;87;20925;-64
2021/10/07 00:08:13;;;;;;;37.48;20.30;;;;;;;1.73;100.00;101127.62;1650146;86;21057;-64
2021/10/07 00:10:40;;;;;;;32.95;17.62;;;;;;;1.68;100.00;101127.58;1649016;86;21455;-64
2021/10/07 00:13:07;;;;;;;35.83;18.10;;;;;;;1.62;100.00;101123.43;1645901;85;21045;-65
2021/10/07 00:15:33;;;;;;;41.18;17.45;;;;;;;1.58;100.00;101129.52;1653085;86;20994;-65
2021/10/07 00:18:00;;;;;;;31.12;12.63;;;;;;;1.57;100.00;101125.69;1649912;85;21066;-64
2021/10/07 00:20:27;;;;;;;20.85;12.43;;;;;;;1.53;100.00;101127.83;1657232;86;21147;-63
2021/10/07 00:22:53;;;;;;;22.35;11.33;;;;;;;1.48;100.00;101133.59;1658038;85;20933;-64
2021/10/07 00:25:19;;;;;;;17.07;10.15;;;;;;;1.41;100.00;101140.48;1657896;86;20861;-64
2021/10/07 00:27:46;;;;;;;17.90;9.03;;;;;;;1.35;100.00;101137.15;1655598;86;20907;-64
2021/10/07 00:30:16;;;;;;;16.93;10.43;;;;;;;1.26;100.00;101139.39;1656390;84;20944;-64
2021/10/07 00:33:06;;;;;;;20.55;9.48;;;;;;;1.18;100.00;101131.41;1657698;86;21184;-64
2021/10/07 00:39:02;;;;;;;13.98;8.95;;;;;;;1.06;100.00;101136.10;1666190;86;21434;-63
2021/10/07 00:40:19;;;;;;;17.05;10.32;;;;;;;1.01;100.00;101137.05;1657721;84;21360;-62
2021/10/07 00:42:46;;;;;;;14.78;9.83;;;;;;;0.97;100.00;101135.69;1655830;86;20889;-62
2021/10/07 00:45:13;;;;;;;24.63;9.70;;;;;;;0.88;100.00;101130.80;1656164;86;21098;-62
2021/10/07 00:47:40;;;;;;;16.32;9.65;;;;;;;0.82;100.00;101137.53;1655229;86;21021;-62
2021/10/07 00:50:08;;;;;;;18.80;9.05;;;;;;;0.76;100.00;101139.95;1656905;86;20889;-63
2021/10/07 00:52:35;;;;;;;14.80;9.30;;;;;;;0.70;100.00;101142.71;1658451;86;20929;-62
2021/10/07 00:55:01;;;;;;;21.15;9.45;;;;;;;0.61;100.00;101144.92;1658095;86;20980;-62
2021/10/07 00:57:28;;;;;;;14.03;9.73;;;;;;;0.52;100.00;101146.67;1658592;86;21152;-62
2021/10/07 00:59:56;;;;;;;25.57;9.80;;;;;;;0.42;100.00;101147.22;1656176;85;21546;-62
2021/10/07 01:02:22;;;;;;;15.23;8.83;;;;;;;0.42;100.00;101147.22;1655392;86;20914;-62
2021/10/07 01:04:51;;;;;;;;;;;;;;;0.38;100.00;101146.67;1657706;86;20989;-62
2021/10/07 01:07:18;;;;;;;24.10;11.33;;;;;;;0.38;100.00;101154.59;1655355;86;20131;-62
2021/10/07 01:09:45;;;;;;;21.33;12.70;;;;;;;0.36;100.00;101152.59;1655319;86;21169;-61
2021/10/07 01:12:12;;;;;;;24.12;11.48;;;;;;;0.32;100.00;101149.06;1657513;85;20953;-61
2021/10/07 01:14:58;;;;;;;21.27;12.15;;;;;;;0.28;100.00;101145.08;1654988;86;21377;-63
2021/10/07 01:17:28;;;;;;;20.43;11.48;;;;;;;0.28;100.00;101146.40;1658161;85;20992;-64
2021/10/07 01:19:57;;;;;;;14.45;10.45;;;;;;;0.27;100.00;101149.53;1658236;86;21024;-63
2021/10/07 01:22:24;;;;;;;16.93;10.48;;;;;;;0.22;100.00;101143.84;1658468;86;21137;-64
2021/10/07 01:24:51;;;;;;;22.35;10.85;;;;;;;0.21;100.00;101144.33;1658163;86;21364;-65
2021/10/07 01:27:23;;;;;;;14.13;10.88;;;;;;;0.21;100.00;101148.30;1656358;86;20973;-65
2021/10/07 01:30:05;;;;;;;12.90;9.85;;;;;;;0.18;100.00;101147.27;1655177;86;20965;-65
2021/10/07 01:32:34;;;;;;;11.97;8.83;;;;;;;0.15;100.00;101146.25;1655859;86;21491;-65
2021/10/07 01:35:06;;;;;;;11.95;8.95;;;;;;;0.11;100.00;101146.69;1657721;85;21089;-64
2021/10/07 01:37:33;;;;;;;17.17;10.23;;;;;;;0.06;100.00;101147.62;1655372;86;20957;-64
2021/10/07 01:40:01;;;;;;;16.80;10.60;;;;;;;0.02;100.00;101148.38;1657090;86;20941;-63
2021/10/07 01:42:27;;;;;;;15.60;9.73;;;;;;;-0.01;100.00;101152.64;1657475;86;20941;-63
2021/10/07 01:44:54;;;;;;;14.85;10.45;;;;;;;-0.04;100.00;101154.27;1657620;86;21004;-64
2021/10/07 01:47:21;;;;;;;16.70;10.90;;;;;;;-0.05;100.00;101150.80;1657576;85;21809;-63
2021/10/07 01:49:47;;;;;;;16.40;9.68;;;;;;;-0.05;100.00;101152.11;1656325;86;20871;-64
2021/10/07 01:52:14;;;;;;;17.52;9.60;;;;;;;-0.08;100.00;101155.02;1655656;86;20991;-65
2021/10/07 01:54:41;;;;;;;35.13;15.38;;;;;;;-0.06;100.00;101153.57;1657568;86;21016;-64
2021/10/07 01:57:07;;;;;;;28.70;15.43;;;;;;;-0.06;100.00;101151.76;1657206;86;20937;-65
2021/10/07 01:59:34;;;;;;;35.58;17.85;;;;;;;-0.05;100.00;101160.03;1656451;86;21182;-64
2021/10/07 02:02:01;;;;;;;21.23;14.07;;;;;;;-0.10;100.00;101164.92;1656497;84;21479;-64
2021/10/07 02:04:27;;;;;;;19.27;11.30;;;;;;;-0.13;100.00;101161.72;1656652;85;21437;-64
2021/10/07 02:06:54;;;;;;;17.77;11.80;;;;;;;-0.18;100.00;101154.73;1657362;86;20921;-64
2021/10/07 02:09:21;;;;;;;17.70;10.38;;;;;;;-0.19;100.00;101163.63;1658119;86;20992;-62
2021/10/07 02:11:49;;;;;;;18.25;11.05;;;;;;;-0.24;100.00;101162.25;1658328;85;21820;-64
2021/10/07 02:14:16;;;;;;;16.30;10.43;;;;;;;-0.28;100.00;101166.63;1678872;85;20996;-63
2021/10/07 02:16:42;;;;;;;24.15;11.38;;;;;;;-0.32;100.00;101173.16;1661917;85;20922;-63
2021/10/07 02:19:09;;;;;;;23.32;11.15;;;;;;;-0.35;100.00;101170.81;1671823;85;20974;-63
2021/10/07 02:21:36;;;;;;;24.47;13.78;;;;;;;-0.40;100.00;101169.09;1684273;85;20917;-63
2021/10/07 02:24:03;;;;;;;23.92;12.35;;;;;;;-0.42;100.00;101169.23;1686108;85;21146;-64
2021/10/07 02:26:30;;;;;;;23.40;12.15;;;;;;;-0.45;100.00;101167.70;1658219;85;21032;-64
2021/10/07 02:28:57;;;;;;;20.97;11.90;;;;;;;-0.46;100.00;101167.88;1658300;86;20888;-63
2021/10/07 02:31:24;;;;;;;24.35;13.85;;;;;;;-0.48;100.00;101168.50;1657857;86;20925;-64
2021/10/07 02:33:50;;;;;;;27.30;14.80;;;;;;;-0.48;100.00;101168.00;1655433;86;20996;-63
2021/10/07 02:36:17;;;;;;;27.52;13.85;;;;;;;-0.49;100.00;101171.63;1655176;86;21064;-65
2021/10/07 02:38:43;;;;;;;29.42;16.00;;;;;;;-0.54;100.00;101173.00;1655142;86;20961;-65
2021/10/07 02:41:10;;;;;;;34.43;15.18;;;;;;;-0.53;100.00;101174.69;1657439;86;20897;-65
2021/10/07 02:43:36;;;;;;;23.85;13.55;;;;;;;-0.51;100.00;101172.25;1658323;84;20920;-65
2021/10/07 02:46:03;;;;;;;19.70;10.88;;;;;;;-0.50;100.00;101174.39;1656414;86;21036;-65
2021/10/07 02:48:31;;;;;;;26.77;13.38;;;;;;;-0.53;100.00;101169.41;1655062;86;21676;-65
2021/10/07 02:50:58;;;;;;;40.55;15.53;;;;;;;-0.54;100.00;101171.22;1655368;86;20851;-65
2021/10/07 02:53:30;;;;;;;26.97;14.75;;;;;;;-0.56;100.00;101173.66;1655140;86;20926;-65
2021/10/07 02:55:55;;;;;;;25.62;14.00;;;;;;;-0.56;100.00;101178.94;1655307;86;20950;-65
2021/10/07 02:58:21;;;;;;;24.65;13.72;;;;;;;-0.58;100.00;101175.59;1655226;86;20976;-65
2021/10/07 03:00:48;;;;;;;29.60;14.05;;;;;;;-0.62;100.00;101189.53;1657843;86;21184;-65
2021/10/07 03:03:15;;;;;;;23.85;13.13;;;;;;;-0.65;100.00;101189.33;1657910;84;20917;-65
2021/10/07 03:05:41;;;;;;;31.45;13.55;;;;;;;-0.64;100.00;101186.20;1657983;86;20972;-63
2021/10/07 03:08:08;;;;;;;27.32;13.88;;;;;;;-0.67;100.00;101188.64;1658031;86;21035;-63
2021/10/07 03:10:34;;;;;;;22.15;14.20;;;;;;;-0.73;100.00;101191.84;1656849;86;21004;-63
2021/10/07 03:13:01;;;;;;;33.42;15.55;;;;;;;-0.75;100.00;101188.52;1647124;86;21142;-64
2021/10/07 03:15:28;;;;;;;30.12;15.98;;;;;;;-0.76;100.00;101192.14;1650117;87;20918;-65
2021/10/07 03:17:56;;;;;;;27.85;15.38;;;;;;;-0.77;100.00;101190.45;1650201;87;20987;-63
2021/10/07 03:20:23;;;;;;;29.80;15.95;;;;;;;-0.80;100.00;101189.91;1650101;86;20940;-64
2021/10/07 03:22:49;;;;;;;24.50;14.80;;;;;;;-0.81;100.00;101189.06;1650859;87;20905;-63
2021/10/07 03:25:16;;;;;;;22.20;12.73;;;;;;;-0.82;100.00;101193.17;1649819;87;21091;-64
2021/10/07 03:27:42;;;;;;;16.87;11.75;;;;;;;-0.82;100.00;101190.05;1647624;87;20964;-64
2021/10/07 03:30:10;;;;;;;17.90;11.70;;;;;;;-0.83;100.00;101197.62;1647636;87;20874;-65
2021/10/07 03:32:37;;;;;;;22.62;11.97;;;;;;;-0.87;100.00;101187.00;1647617;86;20974;-65
2021/10/07 03:35:05;;;;;;;17.37;10.30;;;;;;;-0.89;100.00;101191.56;1649593;87;20996;-65
2021/10/07 03:37:33;;;;;;;23.27;12.43;;;;;;;-0.92;100.00;101190.05;1648825;87;21154;-64
2021/10/07 03:40:00;;;;;;;30.65;11.78;;;;;;;-0.97;100.00;101192.27;1649146;86;20956;-65
2021/10/07 03:42:27;;;;;;;18.85;12.20;;;;;;;-1.00;100.00;101195.19;1650294;85;20897;-65
2021/10/07 03:44:54;;;;;;;13.93;10.82;;;;;;;-1.00;100.00;101198.31;1647431;87;21001;-62
2021/10/07 03:47:20;;;;;;;21.87;12.58;;;;;;;-1.03;100.00;101199.39;1647654;87;20998;-63
2021/10/07 03:49:47;;;;;;;31.10;13.43;;;;;;;-1.02;100.00;101204.20;1647658;87;21155;-62
2021/10/07 03:52:14;;;;;;;26.20;14.15;;;;;;;-1.03;100.00;101207.30;1647642;87;20978;-62
2021/10/07 03:54:41;;;;;;;20.50;12.65;;;;;;;-1.04;100.00;101201.70;1649362;87;20977;-61
2021/10/07 03:57:08;;;;;;;29.48;13.70;;;;;;;-1.06;100.00;101205.44;1650947;87;20894;-61
2021/10/07 03:59:35;;;;;;;22.07;13.72;;;;;;;-1.07;100.00;101210.37;1649935;87;20975;-62
2021/10/07 04:02:02;;;;;;;18.73;12.93;;;;;;;-1.07;100.00;101212.52;1647568;87;21172;-62
2021/10/07 04:04:29;;;;;;;28.75;13.28;;;;;;;-1.06;100.00;101211.53;1647386;87;20899;-63
2021/10/07 04:06:55;;;;;;;20.05;13.53;;;;;;;-1.03;100.00;101206.47;1648497;87;20938;-63
2021/10/07 04:09:22;;;;;;;33.45;16.45;;;;;;;-1.02;100.00;101208.16;1650374;85;20996;-62
2021/10/07 04:11:49;;;;;;;28.23;17.40;;;;;;;-0.99;100.00;101209.19;1650148;87;20917;-63
2021/10/07 04:14:16;;;;;;;25.17;14.65;;;;;;;-1.00;100.00;101203.09;1623173;87;21141;-63
2021/10/07 04:16:42;;;;;;;28.70;16.10;;;;;;;-0.97;100.00;101208.58;1625261;88;20957;-64
2021/10/07 04:19:11;;;;;;;;;;;;;;;-0.95;100.00;101207.47;1627848;88;21118;-63
2021/10/07 04:21:39;;;;;;;20.02;12.55;;;;;;;-0.94;100.00;101212.24;1626263;88;20432;-63
2021/10/07 04:24:06;;;;;;;25.05;14.13;;;;;;;-0.95;100.00;101214.55;1661286;86;20933;-63
2021/10/07 04:26:33;;;;;;;29.40;14.23;;;;;;;-0.92;100.00;101220.85;1659026;86;21108;-64
2021/10/07 04:28:59;;;;;;;31.02;17.07;;;;;;;-0.91;100.00;101229.09;1674915;84;20917;-64
2021/10/07 04:31:26;;;;;;;26.33;14.70;;;;;;;-0.88;100.00;101226.20;1678330;85;21010;-63
2021/10/07 04:33:53;;;;;;;27.70;15.50;;;;;;;-0.85;100.00;101221.97;1677113;84;20895;-64
2021/10/07 04:36:19;;;;;;;22.75;15.40;;;;;;;-0.80;100.00;101230.29;1655883;85;20934;-64
2021/10/07 04:38:46;;;;;;;26.27;14.43;;;;;;;-0.75;100.00;101228.56;1677266;85;21802;-63
2021/10/07 04:41:13;;;;;;;34.78;17.85;;;;;;;-0.68;100.00;101226.54;1673528;84;21018;-63
2021/10/07 04:43:39;;;;;;;25.70;14.23;;;;;;;-0.54;100.00;101230.56;1652642;85;21337;-64
2021/10/07 04:46:06;;;;;;;29.67;14.55;;;;;;;-0.37;100.00;101230.31;1672893;85;20991;-63
2021/10/07 04:48:33;;;;;;;31.10;13.85;;;;;;;-0.19;100.00;101229.61;1673829;85;20938;-63
2021/10/07 04:50:59;;;;;;;26.00;12.30;;;;;;;-0.03;100.00;101229.83;1668776;85;21146;-62
2021/10/07 04:53:26;;;;;;;26.48;13.30;;;;;;;0.13;100.00;101232.70;1667998;85;21360;-64
2021/10/07 04:55:55;;;;;;;39.40;14.53;;;;;;;0.27;100.00;101234.05;1656024;85;20949;-64
2021/10/07 04:58:22;;;;;;;23.30;13.20;;;;;;;0.42;100.00;101234.41;1660780;84;20929;-64
2021/10/07 05:00:50;;;;;;;17.67;11.03;;;;;;;0.52;100.00;101240.96;1662576;85;20870;-65
2021/10/07 05:03:16;;;;;;;19.90;11.05;;;;;;;0.68;100.00;101241.13;1672311;85;21085;-63
2021/10/07 05:05:43;;;;;;;17.60;10.78;;;;;;;0.83;100.00;101250.71;1673117;85;20925;-64
2021/10/07 05:08:10;;;;;;;21.10;12.63;;;;;;;1.03;100.00;101253.59;1665604;85;21490;-66
2021/10/07 05:10:38;;;;;;;22.70;13.45;;;;;;;1.20;100.00;101244.47;1666973;85;21048;-66
2021/10/07 05:13:06;;;;;;;20.48;11.50;;;;;;;1.36;100.00;101249.92;1666438;84;20988;-63
2021/10/07 05:15:34;;;;;;;22.35;11.48;;;;;;;1.54;100.00;101247.25;1694556;83;21135;-67
2021/10/07 05:18:01;;;;;;;17.82;9.03;;;;;;;1.71;100.00;101261.45;1681249;83;21032;-64
2021/10/07 05:20:28;;;;;;;27.10;13.30;;;;;;;1.87;100.00;101262.91;1666629;85;20878;-65
2021/10/07 05:22:55;;;;;;;23.67;12.45;;;;;;;2.03;100.00;101259.52;1681808;85;21031;-66
2021/10/07 05:25:22;;;;;;;26.40;13.53;;;;;;;2.14;100.00;101267.21;1688217;84;20981;-64
2021/10/07 05:27:48;;;;;;;41.40;17.17;;;;;;;2.24;100.00;101267.60;1673527;85;21695;-64
2021/10/07 05:30:15;;;;;;;31.60;14.40;;;;;;;2.34;100.00;101257.71;1680498;85;21536;-64
2021/10/07 05:32:57;;;;;;;49.65;19.67;;;;;;;2.42;100.00;101265.69;1680828;84;20950;-65
2021/10/07 05:35:24;;;;;;;37.65;16.85;;;;;;;2.60;100.00;101269.60;1679972;85;21021;-67
2021/10/07 05:37:51;;;;;;;32.73;14.73;;;;;;;2.76;100.00;101268.82;1684641;83;21482;-66
2021/10/07 05:40:18;;;;;;;24.30;14.20;;;;;;;2.88;100.00;101270.69;1662327;84;21096;-65
2021/10/07 05:42:44;;;;;;;22.50;14.00;;;;;;;2.97;100.00;101272.38;1684622;85;20930;-66
2021/10/07 05:45:11;;;;;;;35.63;17.62;;;;;;;3.07;100.00;101278.88;1679479;83;21478;-64
2021/10/07 05:47:39;;;;;;;36.83;16.93;;;;;;;3.26;100.00;101282.56;1681607;85;20894;-66
2021/10/07 05:50:08;;;;;;;43.38;19.65;;;;;;;3.37;100.00;101285.38;1660268;85;20930;-65
2021/10/07 05:52:36;;;;;;;46.48;20.88;;;;;;;3.52;100.00;101294.35;1684547;83;21740;-65
2021/10/07 05:55:05;;;;;;;31.77;15.03;;;;;;;3.80;100.00;101297.52;1673300;83;21025;-65
2021/10/07 05:57:32;;;;;;;60.78;24.43;;;;;;;4.08;100.00;101299.31;1681656;83;21463;-65
2021/10/07 05:59:59;;;;;;;45.12;20.65;;;;;;;4.36;100.00;101300.28;1678977;83;21021;-66
2021/10/07 06:02:25;;;;;;;48.28;22.50;;;;;;;4.51;99.10;101304.39;1674664;85;20954;-65
2021/10/07 06:04:52;;;;;;;57.55;22.70;;;;;;;4.63;98.21;101303.49;1682167;83;21552;-65
2021/10/07 06:07:19;;;;;;;49.30;25.15;;;;;;;4.71;95.63;101302.97;1678352;85;20985;-65
2021/10/07 06:09:46;;;;;;;44.15;21.68;;;;;;;4.80;96.27;101314.42;1682115;83;21012;-64
2021/10/07 06:12:13;;;;;;;39.03;18.67;;;;;;;5.08;94.20;101306.80;1681724;83;21096;-65
2021/10/07 06:14:39;;;;;;;37.65;18.67;;;;;;;5.34;93.08;101314.95;1682118;83;21464;-65
2021/10/07 06:17:09;;;;;;;47.70;22.50;;;;;;;5.64;92.34;101315.92;1676046;85;21041;-65
2021/10/07 06:19:38;;;;;;;24.05;12.63;;;;;;;5.96;90.01;101322.86;1676856;85;21086;-65
2021/10/07 06:22:05;;;;;;;36.42;16.75;;;;;;;6.10;88.58;101313.24;1677098;84;20990;-65
2021/10/07 06:24:32;;;;;;;27.00;14.60;;;;;;;6.11;88.42;101317.55;1666749;85;20946;-64
2021/10/07 06:26:59;;;;;;;26.15;15.63;;;;;;;6.44;87.00;101319.40;1666553;86;21021;-64
2021/10/07 06:29:27;;;;;;;23.10;11.93;;;;;;;6.76;85.21;101312.52;1669365;86;21142;-65
2021/10/07 06:31:54;;;;;;;20.60;13.93;;;;;;;7.02;82.96;101326.20;1668501;85;21481;-64
2021/10/07 06:34:20;;;;;;;19.70;9.80;;;;;;;7.21;80.85;101333.31;1659771;84;21099;-65
2021/10/07 06:36:48;;;;;;;14.07;9.20;;;;;;;7.28;79.45;101327.02;1657584;86;21073;-66
2021/10/07 06:39:43;;;;;;;16.05;8.50;;;;;;;7.30;78.82;101326.84;1635000;86;21077;-67
2021/10/07 06:42:10;;;;;;;25.25;14.13;;;;;;;7.77;77.33;101336.67;1621286;88;21091;-66
2021/10/07 06:44:36;;;;;;;35.90;18.50;;;;;;;8.14;74.37;101339.03;1622888;88;20898;-66
2021/10/07 06:47:04;;;;;;;17.90;9.40;;;;;;;8.24;73.96;101338.70;1625144;88;20958;-66
2021/10/07 06:49:32;;;;;;;19.25;9.50;;;;;;;8.20;71.48;101337.42;1624472;85;20957;-65
2021/10/07 06:51:59;;;;;;;15.72;7.30;;;;;;;8.20;72.07;101334.75;1623219;88;20947;-65
2021/10/07 06:54:27;;;;;;;10.85;7.53;;;;;;;8.44;70.47;101340.72;1623928;85;20979;-64
2021/10/07 06:56:54;;;;;;;19.57;12.60;;;;;;;8.33;70.05;101344.74;1623002;87;21531;-67
2021/10/07 06:59:21;;;;;;;10.75;6.12;;;;;;;8.48;67.98;101336.12;1623616;87;21099;-63
2021/10/07 07:01:47;;;;;;;11.78;5.05;;;;;;;8.44;67.74;101334.03;1623781;87;20939;-63
2021/10/07 07:04:15;;;;;;;13.88;6.03;;;;;;;8.52;66.49;101333.34;1623435;87;20932;-64
2021/10/07 07:06:43;;;;;;;;;;;;;;;8.61;66.71;101347.41;1624733;87;21474;-62
2021/10/07 07:09:11;;;;;;;14.95;7.53;;;;;;;8.72;66.83;101348.20;1636895;87;20423;-64
2021/10/07 07:11:38;;;;;;;16.77;10.65;;;;;;;8.83;64.24;101340.64;1627474;87;20945;-63
2021/10/07 07:14:08;;;;;;;20.20;9.60;;;;;;;8.96;64.37;101346.86;1644713;86;20966;-64
2021/10/07 07:16:35;;;;;;;10.85;4.90;;;;;;;9.20;63.52;101342.84;1655310;86;21461;-65
2021/10/07 07:19:02;;;;;;;44.77;18.82;;;;;;;9.28;62.33;101353.07;1660033;86;21043;-63
2021/10/07 07:21:32;;;;;;;21.20;8.78;;;;;;;9.40;61.92;101346.92;1690858;84;20980;-64
2021/10/07 07:24:00;;;;;;;19.42;8.68;;;;;;;9.39;60.78;101343.13;1669593;86;21372;-65
2021/10/07 07:26:27;;;;;;;18.13;7.40;;;;;;;9.26;60.26;101337.22;1642584;86;20940;-65
2021/10/07 07:28:54;;;;;;;20.57;8.60;;;;;;;9.47;58.92;101349.63;1667517;86;21344;-65
2021/10/07 07:31:21;;;;;;;21.90;8.55;;;;;;;9.51;58.63;101349.55;1638527;87;21204;-64
2021/10/07 07:33:48;;;;;;;14.05;6.10;;;;;;;9.71;58.68;101350.09;1652697;85;20888;-64
2021/10/07 07:36:16;;;;;;;21.48;6.95;;;;;;;9.85;56.24;101353.93;1654756;85;20977;-64
2021/10/07 07:38:42;;;;;;;20.00;9.68;;;;;;;9.96;55.92;101351.66;1676733;84;21034;-63
2021/10/07 07:41:10;;;;;;;17.65;8.33;;;;;;;10.16;55.54;101358.37;1672700;84;21041;-64
2021/10/07 07:43:38;;;;;;;11.70;6.25;;;;;;;10.32;55.25;101357.17;1668079;85;21147;-65
2021/10/07 07:46:05;;;;;;;23.60;9.28;;;;;;;10.38;51.28;101359.01;1660478;85;20925;-64
2021/10/07 07:48:32;;;;;;;19.23;6.42;;;;;;;10.12;52.83;101353.95;1659297;86;20902;-64
2021/10/07 07:50:59;;;;;;;18.25;5.45;;;;;;;9.97;53.35;101354.64;1660181;86;20902;-62
2021/10/07 07:53:25;;;;;;;14.40;5.85;;;;;;;10.14;51.68;101352.37;1657874;86;21073;-62
2021/10/07 07:55:52;;;;;;;10.03;4.50;;;;;;;10.41;51.93;101354.55;1660274;86;21141;-62
2021/10/07 07:58:19;;;;;;;15.32;4.85;;;;;;;10.15;50.41;101356.73;1659941;86;20993;-62
2021/10/07 08:00:46;;;;;;;9.78;4.87;;;;;;;10.33;49.94;101348.07;1656141;86;21066;-62
2021/10/07 08:03:13;;;;;;;14.00;5.53;;;;;;;10.53;49.72;101344.83;1654358;86;20934;-63
2021/10/07 08:05:40;;;;;;;10.15;5.10;;;;;;;10.45;48.16;101351.77;1642947;86;20874;-64
2021/10/07 08:08:07;;;;;;;5.15;3.72;;;;;;;10.59;46.98;101348.56;1652093;86;21139;-64
2021/10/07 08:10:35;;;;;;;14.68;4.75;;;;;;;10.62;45.31;101346.27;1654469;86;20965;-64
2021/10/07 08:13:02;;;;;;;12.20;5.17;;;;;;;10.48;45.83;101345.48;1647613;86;21021;-64
2021/10/07 08:15:30;;;;;;;11.15;4.37;;;;;;;10.57;45.79;101350.62;1635196;86;20950;-64
2021/10/07 08:17:56;;;;;;;20.80;5.50;;;;;;;10.88;44.21;101347.24;1627981;86;20982;-64
2021/10/07 08:20:23;;;;;;;12.78;5.35;;;;;;;11.19;43.37;101346.47;1638168;86;21148;-64
2021/10/07 08:22:50;;;;;;;11.88;4.33;;;;;;;11.57;43.31;101347.02;1623591;87;20992;-64
2021/10/07 08:25:18;;;;;;;18.95;7.97;;;;;;;11.40;42.69;101353.94;1635118;86;21073;-66
2021/10/07 08:27:45;;;;;;;8.48;3.95;;;;;;;11.05;41.94;101344.38;1623916;87;21453;-66
2021/10/07 08:30:13;;;;;;;23.20;7.28;;;;;;;10.88;40.35;101322.54;1647143;87;21455;-65
2021/10/07 08:32:40;;;;;;;16.80;6.62;;;;;;;11.10;41.48;101351.81;1621658;88;21790;-65
2021/10/07 08:35:08;;;;;;;14.87;6.15;;;;;;;11.15;41.35;101343.93;1619939;87;21019;-66
2021/10/07 08:37:35;;;;;;;9.73;4.37;;;;;;;11.05;39.44;101340.36;1624543;87;25194;-64
2021/10/07 08:40:04;;;;;;;12.93;4.30;;;;;;;11.16;40.56;101335.63;1641750;86;20949;-65
2021/10/07 08:42:33;;;;;;;14.18;5.15;;;;;;;11.29;39.88;101338.80;1619041;87;20985;-66
2021/10/07 08:45:01;;;;;;;9.18;3.70;;;;;;;11.51;39.94;101337.11;1627756;87;21150;-65
2021/10/07 08:47:29;;;;;;;9.83;3.95;;;;;;;11.37;39.35;101336.38;1631192;87;20958;-66
2021/10/07 08:49:56;;;;;;;17.48;4.53;;;;;;;11.31;39.22;101338.56;1615037;87;21513;-65
2021/10/07 08:52:22;;;;;;;12.03;4.80;;;;;;;11.23;40.11;101339.64;1630888;87;20984;-67
2021/10/07 08:54:49;;;;;;;7.70;3.75;;;;;;;11.37;38.38;101338.54;1626091;87;21043;-65
2021/10/07 08:57:16;;;;;;;44.33;7.45;;;;;;;11.29;38.32;101336.11;1610406;87;21145;-65
2021/10/07 08:59:43;;;;;;;22.60;7.62;;;;;;;11.17;38.16;101341.86;1628983;87;21415;-64
2021/10/07 09:02:26;;;;;;;14.15;6.25;;;;;;;10.98;38.09;101326.64;1614850;87;21456;-65
2021/10/07 09:04:53;;;;;;;26.35;9.35;;;;;;;10.88;38.18;101331.13;1614610;87;20908;-66
2021/10/07 09:07:21;;;;;;;21.85;5.80;;;;;;;11.03;39.06;101341.08;1613226;89;21521;-65
2021/10/07 09:09:48;;;;;;;7.75;2.98;;;;;;;11.18;39.35;101336.77;1613769;89;22241;-65
2021/10/07 09:12:17;;;;;;;8.23;2.90;;;;;;;11.14;38.34;101344.42;1637616;86;21439;-66
2021/10/07 09:14:47;;;;;;;16.35;5.17;;;;;;;11.10;38.04;101296.72;1634212;85;21099;-66
2021/10/07 09:17:16;;;;;;;15.40;6.00;;;;;;;11.39;38.27;101336.96;1653164;85;21483;-65
2021/10/07 09:19:47;;;;;;;16.67;5.53;;;;;;;11.58;37.86;101317.19;1652369;85;21523;-65
2021/10/07 09:22:33;;;;;;;25.52;3.90;;;;;;;11.57;38.01;101322.28;1658463;85;21136;-65
2021/10/07 09:25:00;;;;;;;12.68;2.95;;;;;;;11.68;36.07;101332.85;1650704;85;20964;-65
2021/10/07 09:27:33;;;;;;;9.25;3.55;;;;;;;11.69;35.77;101334.52;1648435;86;21466;-65
2021/10/07 09:30:11;;;;;;;13.30;7.05;;;;;;;11.73;35.92;101330.33;1647458;87;21409;-64
2021/10/07 09:32:43;;;;;;;;;;;;;;;12.01;35.61;101341.25;1647667;85;21005;-65
2021/10/07 09:35:11;;;;;;;8.15;4.33;;;;;;;12.05;35.49;101324.13;1632967;85;21147;-63
2021/10/07 09:37:43;;;;;;;10.18;3.80;;;;;;;11.86;35.64;101329.43;1669398;85;20977;-65
2021/10/07 09:40:17;;;;;;;9.65;5.22;;;;;;;11.90;36.17;101328.48;1683112;85;20929;-66
2021/10/07 09:42:50;;;;;;;13.38;4.10;;;;;;;11.76;36.05;101327.75;1663728;85;20925;-65
2021/10/07 09:45:27;;;;;;;14.03;4.80;;;;;;;11.81;36.68;101325.23;1657052;86;20898;-65
2021/10/07 09:48:05;;;;;;;12.53;5.55;;;;;;;11.94;36.07;101306.84;1656894;85;20954;-65
2021/10/07 09:50:37;;;;;;;24.30;8.13;;;;;;;11.95;36.53;101321.92;1657114;86;20977;-66
2021/10/07 09:53:13;;;;;;;15.15;5.65;;;;;;;11.93;34.90;101313.24;1632416;86;21447;-65
2021/10/07 09:55:47;;;;;;;16.40;6.10;;;;;;;11.84;35.55;101325.31;1650663;87;21001;-65
2021/10/07 09:58:23;;;;;;;20.82;7.17;;;;;;;11.70;35.61;101308.44;1650471;86;21033;-64
2021/10/07 10:00:55;;;;;;;20.95;9.93;;;;;;;11.92;35.82;101316.99;1635638;86;21174;-65
2021/10/07 10:03:23;;;;;;;29.12;14.03;;;;;;;11.98;34.89;101318.29;1638319;86;21486;-62
2021/10/07 10:05:51;;;;;;;12.00;3.60;;;;;;;12.23;35.16;101322.83;1649567;85;21503;-62
2021/10/07 10:08:20;;;;;;;9.48;2.92;;;;;;;12.15;34.52;101316.37;1673903;85;21427;-62
2021/10/07 10:10:47;;;;;;;10.38;3.20;;;;;;;12.06;34.70;101304.26;1650617;87;21480;-63
2021/10/07 10:13:15;;;;;;;7.17;3.12;;;;;;;12.15;35.10;101305.10;1666159;85;21169;-61
2021/10/07 10:15:42;;;;;;;6.87;3.98;;;;;;;12.26;34.39;101302.72;1644848;86;21008;-64
2021/10/07 10:18:12;;;;;;;13.20;4.95;;;;;;;12.39;34.92;101310.66;1639416;87;20890;-64
2021/10/07 10:20:46;;;;;;;10.00;5.33;;;;;;;12.50;35.26;101306.42;1616116;87;21036;-63
2021/10/07 10:23:17;;;;;;;13.90;3.87;;;;;;;12.65;34.22;101300.95;1620155;87;21548;-63
2021/10/07 10:26:09;;;;;;;12.47;4.37;;;;;;;12.35;34.70;101300.05;1613063;89;21351;-63
2021/10/07 10:28:45;;;;;;;11.63;4.03;;;;;;;12.44;35.47;101308.11;1613725;88;20980;-64
2021/10/07 10:31:14;;;;;;;9.33;3.77;;;;;;;12.55;34.08;101293.10;1613620;89;21004;-65
2021/10/07 10:33:45;;;;;;;8.33;2.87;;;;;;;12.38;33.71;101289.64;1613903;89;20935;-64
2021/10/07 10:36:31;;;;;;;8.98;2.90;;;;;;;12.40;33.84;101283.52;1613794;89;21476;-62
2021/10/07 10:39:26;;;;;;;8.00;3.42;;;;;;;12.39;34.38;101292.62;1613759;89;21153;-63
2021/10/07 10:41:57;;;;;;;10.25;3.62;;;;;;;12.68;34.28;101284.04;1613174;89;20961;-62
2021/10/07 10:44:34;;;;;;;9.28;3.87;;;;;;;12.90;33.17;101269.03;1613116;89;21012;-62
2021/10/07 10:47:10;;;;;;;17.80;3.62;;;;;;;13.09;33.19;101283.31;1614361;88;20969;-63
2021/10/07 10:49:53;;;;;;;8.50;3.62;;;;;;;13.22;32.87;101284.99;1614379;88;21123;-63
2021/10/07 10:52:31;;;;;;;8.00;3.25;;;;;;;12.81;32.64;101286.06;1606436;87;21770;-62
2021/10/07 10:55:09;;;;;;;6.10;2.98;;;;;;;12.97;32.69;101280.55;1606657;89;20934;-62
2021/10/07 10:57:41;;;;;;;9.83;3.77;;;;;;;13.05;32.26;101270.80;1604295;89;21096;-65
2021/10/07 11:00:31;;;;;;;6.90;3.35;;;;;;;12.73;32.52;101272.05;1595417;88;21026;-60
2021/10/07 11:03:15;;;;;;;8.65;2.60;;;;;;;12.63;32.40;101280.14;1604986;89;21526;-61
2021/10/07 11:06:05;;;;;;;11.90;3.70;;;;;;;12.60;31.79;101277.91;1604735;89;22303;-64
2021/10/07 11:08:47;;;;;;;13.40;4.70;;;;;;;12.61;32.15;101282.76;1607212;89;21009;-62
2021/10/07 11:11:29;;;;;;;15.08;4.60;;;;;;;13.05;32.39;101280.77;1604310;89;20920;-63
2021/10/07 11:13:57;;;;;;;8.25;3.95;;;;;;;13.34;32.03;101285.07;1605400;89;21041;-61
2021/10/07 11:16:28;;;;;;;8.15;2.98;;;;;;;13.35;31.80;101296.14;1572098;88;21454;-63
2021/10/07 11:18:57;;;;;;;7.12;2.90;;;;;;;13.56;31.09;101291.58;1615877;87;21762;-62
2021/10/07 11:21:27;;;;;;;6.60;3.62;;;;;;;13.50;30.87;101293.33;1597525;88;21022;-64
2021/10/07 11:24:51;;;;;;;9.83;3.35;;;;;;;13.46;31.33;101292.67;1497962;93;21115;-65